createdAt,value
2023-05-25T00:03:40.404Z,6.85
2023-05-25T00:08:36.992Z,5.93
2023-05-25T00:13:34.631Z,6.60
2023-05-25T00:18:33.112Z,5.50
2023-05-25T00:28:26.139Z,5.70
2023-05-25T00:33:22.567Z,5.85
2023-05-25T00:38:20.183Z,6.43
2023-05-25T00:43:16.859Z,5.97
2023-05-25T00:48:14.257Z,5.22
2023-05-25T00:53:12.912Z,7.10
2023-05-25T00:58:11.638Z,7.15
2023-05-25T01:03:13.732Z,6.38
2023-05-25T01:08:12.089Z,6.07
2023-05-25T01:13:10.166Z,6.13
2023-05-25T01:18:06.586Z,5.82
2023-05-25T01:23:14.114Z,4.72
2023-05-25T01:28:17.873Z,6.35
2023-05-25T01:33:14.404Z,5.80
2023-05-25T01:38:11.486Z,6.15
2023-05-25T01:43:07.901Z,6.07
2023-05-25T01:48:16.468Z,6.68
2023-05-25T01:58:15.296Z,5.70
2023-05-25T02:03:12.275Z,6.75
2023-05-25T02:08:08.702Z,5.90
2023-05-25T02:13:05.184Z,6.22
2023-05-25T02:18:01.656Z,6.03
2023-05-25T02:22:58.165Z,5.75
2023-05-25T02:27:54.597Z,7.18
2023-05-25T02:32:51.079Z,7.10
2023-05-25T02:37:50.268Z,5.47
2023-05-25T02:42:47.901Z,6.53
2023-05-25T02:47:44.379Z,6.18
2023-05-25T02:52:40.869Z,6.05
2023-05-25T02:57:38.888Z,5.63
2023-05-25T03:02:35.359Z,5.60
2023-05-25T03:07:31.882Z,5.45
2023-05-25T03:12:28.286Z,5.10
2023-05-25T03:17:24.952Z,6.05
2023-05-25T03:22:21.492Z,5.68
2023-05-25T03:27:17.956Z,6.10
2023-05-25T03:32:14.431Z,5.25
2023-05-25T03:37:11.778Z,5.60
2023-05-25T03:42:08.188Z,5.40
2023-05-25T03:47:04.849Z,6.03
2023-05-25T03:52:01.400Z,5.57
2023-05-25T03:56:59.406Z,7.07
2023-05-25T04:01:55.972Z,5.20
2023-05-25T04:06:52.398Z,5.93
2023-05-25T04:11:48.832Z,6.07
2023-05-25T04:16:46.020Z,5.15
2023-05-25T04:21:42.613Z,5.18
2023-05-25T04:26:39.500Z,5.57
2023-05-25T04:31:36.051Z,6.13
2023-05-25T04:36:32.722Z,6.10
2023-05-25T04:41:29.969Z,6.82
2023-05-25T04:46:26.481Z,6.00
2023-05-25T04:51:23.072Z,6.75
2023-05-25T04:56:19.557Z,6.82
2023-05-25T05:01:16.561Z,7.20
2023-05-25T05:06:13.052Z,9.30
2023-05-25T05:11:10.262Z,10.30
2023-05-25T05:16:06.938Z,10.13
2023-05-25T05:21:03.441Z,9.93
2023-05-25T05:26:00.275Z,11.00
2023-05-25T05:30:57.932Z,11.48
2023-05-25T05:35:54.678Z,11.33
2023-05-25T05:40:51.514Z,9.43
2023-05-25T05:45:47.897Z,8.45
2023-05-25T05:50:44.282Z,9.57
2023-05-25T05:55:40.917Z,9.38
2023-05-25T06:00:37.661Z,9.32
2023-05-25T06:05:34.051Z,9.13
2023-05-25T06:10:30.505Z,10.73
2023-05-25T06:15:26.918Z,11.00
2023-05-25T06:20:23.428Z,10.93
2023-05-25T06:25:20.370Z,11.80
2023-05-25T06:30:16.927Z,12.45
2023-05-25T06:35:19.523Z,14.60
2023-05-25T06:40:16.681Z,13.25
2023-05-25T06:45:13.177Z,14.40
2023-05-25T06:50:11.157Z,12.95
2023-05-25T06:55:08.757Z,13.45
2023-05-25T07:00:08.119Z,11.90
2023-05-25T07:05:05.967Z,12.80
2023-05-25T07:10:03.931Z,13.65
2023-05-25T07:15:00.492Z,13.70
2023-05-25T07:19:57.217Z,12.38
2023-05-25T07:24:53.713Z,12.98
2023-05-25T07:29:50.091Z,11.98
2023-05-25T07:34:46.462Z,10.68
2023-05-25T07:39:42.875Z,10.00
2023-05-25T07:44:39.379Z,9.35
2023-05-25T07:49:35.870Z,9.18
2023-05-25T07:54:32.565Z,8.45
2023-05-25T07:59:28.972Z,7.53
2023-05-25T08:04:25.639Z,8.07
2023-05-25T08:09:22.511Z,7.45
2023-05-25T08:14:19.008Z,7.13
2023-05-25T08:19:15.396Z,8.30
2023-05-25T08:24:11.805Z,8.10
2023-05-25T08:29:08.242Z,7.03
2023-05-25T08:34:04.660Z,6.75
2023-05-25T08:39:01.185Z,6.82
2023-05-25T08:43:57.831Z,6.78
2023-05-25T08:48:58.808Z,5.88
2023-05-25T08:54:00.845Z,6.47
2023-05-25T08:59:09.512Z,6.55
2023-05-25T09:04:06.928Z,7.15
2023-05-25T09:09:07.762Z,6.67
2023-05-25T09:14:04.572Z,6.03
2023-05-25T09:19:01.774Z,6.88
2023-05-25T09:23:59.949Z,6.78
2023-05-25T09:28:56.538Z,6.20
2023-05-25T09:33:59.799Z,6.53
2023-05-25T09:38:56.595Z,6.45
2023-05-25T09:44:02.184Z,6.60
2023-05-25T09:49:09.612Z,8.35
2023-05-25T09:54:09.964Z,9.00
2023-05-25T09:59:06.949Z,9.60
2023-05-25T10:04:05.500Z,8.43
2023-05-25T10:09:05.273Z,8.63
2023-05-25T10:14:07.386Z,7.40
2023-05-25T10:19:17.595Z,8.13
2023-05-25T10:24:24.728Z,8.40
2023-05-25T10:29:24.941Z,6.68
2023-05-25T10:34:22.283Z,8.25
2023-05-25T10:39:20.475Z,7.67
2023-05-25T10:49:13.996Z,5.82
2023-05-25T10:54:13.776Z,5.32
2023-05-25T10:59:13.134Z,6.30
2023-05-25T11:04:09.524Z,5.43
2023-05-25T11:09:07.579Z,6.00
2023-05-25T11:14:04.012Z,5.68
2023-05-25T11:19:02.200Z,5.68
2023-05-25T11:29:14.421Z,4.95
2023-05-25T11:34:12.353Z,4.75
2023-05-25T11:39:20.491Z,4.28
2023-05-25T11:44:28.009Z,4.53
2023-05-25T11:49:27.542Z,4.25
2023-05-25T11:54:25.777Z,4.32
2023-05-25T12:04:22.445Z,3.97
2023-05-25T12:09:22.688Z,3.85
2023-05-25T12:14:20.753Z,4.03
2023-05-25T12:24:14.410Z,3.42
2023-05-25T12:29:10.861Z,4.32
2023-05-25T12:34:09.329Z,4.50
2023-05-25T12:39:07.284Z,4.22
2023-05-25T12:44:03.796Z,3.58
2023-05-25T12:49:00.227Z,3.67
2023-05-25T12:53:58.750Z,3.88
2023-05-25T12:58:55.384Z,3.90
2023-05-25T13:03:53.547Z,3.33
2023-05-25T13:08:49.979Z,2.95
2023-05-25T13:13:46.492Z,2.80
2023-05-25T13:18:42.970Z,3.10
2023-05-25T13:23:39.387Z,3.00
2023-05-25T13:28:35.856Z,4.20
2023-05-25T13:33:32.302Z,2.40
2023-05-25T13:38:30.220Z,4.10
2023-05-25T13:43:27.132Z,2.40
2023-05-25T13:48:23.774Z,2.70
2023-05-25T13:53:20.204Z,2.72
2023-05-25T13:58:16.744Z,2.92
2023-05-25T14:03:14.097Z,2.83
2023-05-25T14:08:12.715Z,2.65
2023-05-25T14:13:09.181Z,2.85
2023-05-25T14:18:05.707Z,2.80
2023-05-25T14:23:02.206Z,3.00
2023-05-25T14:27:58.632Z,3.15
2023-05-25T14:32:55.164Z,3.05
2023-05-25T14:37:51.778Z,3.42
2023-05-25T14:42:48.587Z,3.53
2023-05-25T14:47:45.043Z,3.72
2023-05-25T14:52:42.093Z,3.15
2023-05-25T14:57:38.741Z,4.47
2023-05-25T15:02:35.306Z,3.83
2023-05-25T15:07:31.988Z,3.75
2023-05-25T15:12:28.481Z,3.22
2023-05-25T15:17:24.960Z,3.00
2023-05-25T15:22:21.801Z,2.90
2023-05-25T15:27:18.247Z,4.32
2023-05-25T15:32:17.724Z,3.97
2023-05-25T15:37:14.286Z,3.15
2023-05-25T15:42:10.826Z,3.15
2023-05-25T15:47:07.303Z,3.63
2023-05-25T15:52:04.003Z,3.78
2023-05-25T15:57:02.045Z,3.15
2023-05-25T16:01:58.547Z,3.08
2023-05-25T16:06:55.111Z,3.83
2023-05-25T16:11:51.645Z,3.55
2023-05-25T16:16:48.560Z,4.65
2023-05-25T16:21:45.056Z,3.87
2023-05-25T16:26:41.496Z,3.60
2023-05-25T16:31:37.996Z,4.28
2023-05-25T16:36:34.497Z,3.25
2023-05-25T16:41:30.935Z,3.72
2023-05-25T16:46:27.470Z,4.40
2023-05-25T16:51:24.085Z,3.50
2023-05-25T16:56:21.491Z,2.80
2023-05-25T17:01:18.050Z,2.95
2023-05-25T17:06:15.678Z,3.67
2023-05-25T17:11:12.246Z,3.03
2023-05-25T17:16:08.792Z,3.92
2023-05-25T17:21:05.407Z,4.05
2023-05-25T17:26:01.904Z,3.40
2023-05-25T17:30:59.190Z,4.70
2023-05-25T17:35:55.630Z,3.30
2023-05-25T17:40:52.054Z,3.45
2023-05-25T17:45:48.485Z,3.30
2023-05-25T17:50:44.957Z,3.35
2023-05-25T17:55:41.409Z,4.05
2023-05-25T18:00:37.890Z,3.35
2023-05-25T18:05:34.376Z,4.45
2023-05-25T18:10:30.881Z,4.45
2023-05-25T18:15:27.321Z,3.55
2023-05-25T18:20:23.849Z,4.15
2023-05-25T18:25:20.324Z,3.60
2023-05-25T18:30:16.772Z,4.07
2023-05-25T18:35:13.255Z,4.43
2023-05-25T18:40:12.826Z,3.97
2023-05-25T18:45:09.661Z,3.60
2023-05-25T18:50:07.112Z,3.90
2023-05-25T18:55:04.069Z,3.47
2023-05-25T19:00:00.824Z,4.57
2023-05-25T19:04:57.558Z,3.92
2023-05-25T19:09:54.002Z,3.78
2023-05-25T19:14:50.466Z,4.18
2023-05-25T19:19:46.949Z,4.35
2023-05-25T19:24:46.950Z,4.80
2023-05-25T19:29:46.891Z,3.88
2023-05-25T19:39:39.698Z,4.60
2023-05-25T19:44:36.865Z,4.13
2023-05-25T19:49:33.486Z,4.88
2023-05-25T19:54:29.926Z,5.00
2023-05-25T19:59:28.944Z,5.10
2023-05-25T20:04:25.757Z,4.28
2023-05-25T20:09:30.546Z,3.90
2023-05-25T20:14:27.096Z,6.00
2023-05-25T20:19:23.624Z,3.80
2023-05-25T20:24:20.104Z,3.80
2023-05-25T20:29:16.540Z,4.68
2023-05-25T20:34:13.019Z,4.03
2023-05-25T20:39:09.761Z,4.30
2023-05-25T20:44:06.897Z,5.03
2023-05-25T20:49:03.569Z,7.10
2023-05-25T20:54:00.040Z,4.78
2023-05-25T20:58:57.515Z,4.70
2023-05-25T21:03:53.980Z,3.37
2023-05-25T21:08:50.829Z,4.75
2023-05-25T21:13:47.995Z,4.40
2023-05-25T21:18:44.475Z,4.35
2023-05-25T21:23:40.988Z,3.90
2023-05-25T21:28:37.469Z,3.83
2023-05-25T21:33:35.860Z,4.45
2023-05-25T21:38:32.474Z,5.30
2023-05-25T21:43:28.926Z,4.10
2023-05-25T21:48:25.530Z,4.65
2023-05-25T21:53:22.028Z,3.83
2023-05-25T21:58:19.107Z,3.75
2023-05-25T22:03:15.767Z,4.18
2023-05-25T22:08:12.397Z,3.13
2023-05-25T22:13:08.946Z,3.17
2023-05-25T22:18:06.291Z,4.28
2023-05-25T22:23:02.787Z,3.33
2023-05-25T22:27:59.293Z,3.83
2023-05-25T22:32:55.816Z,4.80
2023-05-25T22:37:52.325Z,4.85
2023-05-25T22:42:51.685Z,3.80
2023-05-25T22:47:48.422Z,4.72
2023-05-25T22:52:44.972Z,3.60
2023-05-25T22:57:41.421Z,3.88
2023-05-25T23:02:38.124Z,3.47
2023-05-25T23:07:34.657Z,3.95
2023-05-25T23:12:31.316Z,4.90
2023-05-25T23:17:27.779Z,3.30
2023-05-25T23:22:24.238Z,4.45
2023-05-25T23:27:20.791Z,4.78
2023-05-25T23:32:17.243Z,4.57
2023-05-25T23:37:13.697Z,5.53
2023-05-25T23:42:10.241Z,5.68
2023-05-25T23:47:07.114Z,5.38
2023-05-25T23:52:03.790Z,4.43
2023-05-25T23:57:00.281Z,4.93
